sensor_id;sensor_type;location;lat;lon;timestamp;pressure;altitude;pressure_sealevel;temperature;humidity
8101;BME280;4093;53.470;9.832;2023-05-25T00:00:43;102367.28;;;14.68;77.80
8101;BME280;4093;53.470;9.832;2023-05-25T00:03:27;102362.19;;;14.54;79.30
8101;BME280;4093;53.470;9.832;2023-05-25T00:05:57;102369.13;;;14.49;79.95
8101;BME280;4093;53.470;9.832;2023-05-25T00:08:27;102370.91;;;14.46;78.28
8101;BME280;4093;53.470;9.832;2023-05-25T00:10:56;102371.81;;;14.42;79.26
8101;BME280;4093;53.470;9.832;2023-05-25T00:13:24;102358.03;;;14.26;79.57
8101;BME280;4093;53.470;9.832;2023-05-25T00:15:51;102381.31;;;14.52;80.04
8101;BME280;4093;53.470;9.832;2023-05-25T00:18:19;102385.59;;;14.57;79.78
8101;BME280;4093;53.470;9.832;2023-05-25T00:20:47;102386.44;;;14.60;78.17
8101;BME280;4093;53.470;9.832;2023-05-25T00:23:15;102381.47;;;14.26;80.34
8101;BME280;4093;53.470;9.832;2023-05-25T00:25:43;102398.69;;;14.45;79.68
8101;BME280;4093;53.470;9.832;2023-05-25T00:28:12;102395.19;;;14.46;79.95
8101;BME280;4093;53.470;9.832;2023-05-25T00:30:40;102390.94;;;14.36;79.31
8101;BME280;4093;53.470;9.832;2023-05-25T00:33:08;102391.69;;;14.50;80.33
8101;BME280;4093;53.470;9.832;2023-05-25T00:35:36;102391.03;;;14.21;81.88
8101;BME280;4093;53.470;9.832;2023-05-25T00:38:04;102352.94;;;14.07;81.12
8101;BME280;4093;53.470;9.832;2023-05-25T00:40:32;102397.97;;;14.20;81.64
8101;BME280;4093;53.470;9.832;2023-05-25T00:43:01;102390.09;;;14.29;80.60
8101;BME280;4093;53.470;9.832;2023-05-25T00:45:30;102392.63;;;14.42;79.74
8101;BME280;4093;53.470;9.832;2023-05-25T00:47:59;102387.47;;;14.34;79.72
8101;BME280;4093;53.470;9.832;2023-05-25T00:50:35;102382.41;;;14.09;81.39
8101;BME280;4093;53.470;9.832;2023-05-25T00:53:04;102387.63;;;14.06;82.32
8101;BME280;4093;53.470;9.832;2023-05-25T00:55:34;102397.16;;;14.10;81.94
8101;BME280;4093;53.470;9.832;2023-05-25T00:58:04;102387.66;;;13.97;81.85
8101;BME280;4093;53.470;9.832;2023-05-25T01:00:34;102394.56;;;14.07;81.95
8101;BME280;4093;53.470;9.832;2023-05-25T01:03:08;102384.22;;;13.95;81.27
8101;BME280;4093;53.470;9.832;2023-05-25T01:05:39;102377.28;;;13.91;82.55
8101;BME280;4093;53.470;9.832;2023-05-25T01:08:10;102366.94;;;13.82;82.04
8101;BME280;4093;53.470;9.832;2023-05-25T01:10:41;102380.78;;;13.90;81.95
8101;BME280;4093;53.470;9.832;2023-05-25T01:13:11;102357.41;;;13.81;82.16
8101;BME280;4093;53.470;9.832;2023-05-25T01:15:41;102380.69;;;14.05;81.05
8101;BME280;4093;53.470;9.832;2023-05-25T01:18:09;102380.75;;;13.93;80.89
8101;BME280;4093;53.470;9.832;2023-05-25T01:20:51;102384.22;;;13.95;81.16
8101;BME280;4093;53.470;9.832;2023-05-25T01:23:25;102384.22;;;13.91;82.16
8101;BME280;4093;53.470;9.832;2023-05-25T01:25:58;102386.81;;;13.98;81.86
8101;BME280;4093;53.470;9.832;2023-05-25T01:28:29;102370.41;;;13.81;81.33
8101;BME280;4093;53.470;9.832;2023-05-25T01:30:58;102383.53;;;13.52;82.34
8101;BME280;4093;53.470;9.832;2023-05-25T01:33:27;102399.84;;;13.89;82.05
8101;BME280;4093;53.470;9.832;2023-05-25T01:35:58;102392.97;;;13.79;81.17
8101;BME280;4093;53.470;9.832;2023-05-25T01:38:27;102359.28;;;13.43;82.71
8101;BME280;4093;53.470;9.832;2023-05-25T01:40:54;102403.47;;;13.42;84.89
8101;BME280;4093;53.470;9.832;2023-05-25T01:43:22;102402.53;;;13.64;83.59
8101;BME280;4093;53.470;9.832;2023-05-25T01:46:03;102406.03;;;13.50;83.42
8101;BME280;4093;53.470;9.832;2023-05-25T01:48:39;102400.00;;;13.37;84.29
8101;BME280;4093;53.470;9.832;2023-05-25T01:51:17;102399.13;;;13.47;83.93
8101;BME280;4093;53.470;9.832;2023-05-25T01:53:52;102397.31;;;13.72;81.67
8101;BME280;4093;53.470;9.832;2023-05-25T01:56:21;102402.53;;;13.64;81.98
8101;BME280;4093;53.470;9.832;2023-05-25T01:58:50;102399.94;;;13.64;80.77
8101;BME280;4093;53.470;9.832;2023-05-25T02:01:19;102398.25;;;13.57;81.35
8101;BME280;4093;53.470;9.832;2023-05-25T02:03:50;102391.34;;;13.38;82.20
8101;BME280;4093;53.470;9.832;2023-05-25T02:06:20;102397.38;;;13.55;82.30
8101;BME280;4093;53.470;9.832;2023-05-25T02:08:47;102388.72;;;13.41;82.01
8101;BME280;4093;53.470;9.832;2023-05-25T02:11:15;102398.25;;;13.57;81.52
8101;BME280;4093;53.470;9.832;2023-05-25T02:13:43;102390.44;;;13.63;81.83
8101;BME280;4093;53.470;9.832;2023-05-25T02:16:11;102386.16;;;13.38;81.13
8101;BME280;4093;53.470;9.832;2023-05-25T02:18:38;102401.75;;;13.33;83.66
8101;BME280;4093;53.470;9.832;2023-05-25T02:21:10;102342.88;;;13.28;81.05
8101;BME280;4093;53.470;9.832;2023-05-25T02:23:39;102380.09;;;13.13;83.68
8101;BME280;4093;53.470;9.832;2023-05-25T02:26:07;102393.94;;;13.49;82.76
8101;BME280;4093;53.470;9.832;2023-05-25T02:28:34;102399.06;;;13.69;81.65
8101;BME280;4093;53.470;9.832;2023-05-25T02:31:02;102401.72;;;13.55;82.56
8101;BME280;4093;53.470;9.832;2023-05-25T02:33:30;102394.78;;;13.55;82.42
8101;BME280;4093;53.470;9.832;2023-05-25T02:35:57;102357.59;;;13.33;83.41
8101;BME280;4093;53.470;9.832;2023-05-25T02:38:25;102392.16;;;13.55;83.56
8101;BME280;4093;53.470;9.832;2023-05-25T02:40:55;102403.44;;;13.57;83.60
8101;BME280;4093;53.470;9.832;2023-05-25T02:43:22;102407.69;;;13.83;83.18
8101;BME280;4093;53.470;9.832;2023-05-25T02:45:50;102396.41;;;13.81;82.84
8101;BME280;4093;53.470;9.832;2023-05-25T02:48:25;102396.50;;;13.50;85.69
8101;BME280;4093;53.470;9.832;2023-05-25T02:50:53;102395.53;;;13.83;83.39
8101;BME280;4093;53.470;9.832;2023-05-25T02:53:21;102388.63;;;13.79;83.01
8101;BME280;4093;53.470;9.832;2023-05-25T02:55:49;102387.78;;;13.76;83.32
8101;BME280;4093;53.470;9.832;2023-05-25T02:58:19;102399.06;;;13.69;83.24
8101;BME280;4093;53.470;9.832;2023-05-25T03:00:48;102348.91;;;13.22;84.16
8101;BME280;4093;53.470;9.832;2023-05-25T03:03:16;102406.84;;;13.72;83.18
8101;BME280;4093;53.470;9.832;2023-05-25T03:05:44;102414.63;;;13.78;83.36
8101;BME280;4093;53.470;9.832;2023-05-25T03:08:12;102352.34;;;13.49;83.51
8101;BME280;4093;53.470;9.832;2023-05-25T03:10:40;102409.47;;;13.59;84.95
8101;BME280;4093;53.470;9.832;2023-05-25T03:13:08;102424.16;;;13.77;84.89
8101;BME280;4093;53.470;9.832;2023-05-25T03:15:37;102422.41;;;13.78;84.60
8101;BME280;4093;53.470;9.832;2023-05-25T03:18:05;102425.91;;;13.71;85.77
8101;BME280;4093;53.470;9.832;2023-05-25T03:20:33;102427.63;;;13.81;84.90
8101;BME280;4093;53.470;9.832;2023-05-25T03:23:01;102427.53;;;14.02;84.53
8101;BME280;4093;53.470;9.832;2023-05-25T03:25:29;102436.22;;;14.01;84.52
8101;BME280;4093;53.470;9.832;2023-05-25T03:27:56;102433.56;;;14.10;84.36
8101;BME280;4093;53.470;9.832;2023-05-25T03:30:24;102439.66;;;14.08;85.49
8101;BME280;4093;53.470;9.832;2023-05-25T03:32:53;102436.16;;;14.17;84.69
8101;BME280;4093;53.470;9.832;2023-05-25T03:35:21;102436.19;;;14.10;84.46
8101;BME280;4093;53.470;9.832;2023-05-25T03:37:49;102436.25;;;13.95;85.07
8101;BME280;4093;53.470;9.832;2023-05-25T03:40:16;102436.25;;;13.92;85.46
8101;BME280;4093;53.470;9.832;2023-05-25T03:42:44;102437.16;;;13.79;87.93
8101;BME280;4093;53.470;9.832;2023-05-25T03:45:12;102437.03;;;14.08;86.52
8101;BME280;4093;53.470;9.832;2023-05-25T03:47:40;102431.81;;;14.14;86.03
8101;BME280;4093;53.470;9.832;2023-05-25T03:50:10;102441.38;;;14.10;86.13
8101;BME280;4093;53.470;9.832;2023-05-25T03:52:38;102437.06;;;14.02;86.65
8101;BME280;4093;53.470;9.832;2023-05-25T03:55:06;102444.78;;;14.19;85.83
8101;BME280;4093;53.470;9.832;2023-05-25T03:57:34;102455.06;;;14.45;85.29
8101;BME280;4093;53.470;9.832;2023-05-25T04:00:01;102446.34;;;14.50;84.26
8101;BME280;4093;53.470;9.832;2023-05-25T04:02:30;102443.84;;;14.33;84.21
8101;BME280;4093;53.470;9.832;2023-05-25T04:05:00;102455.00;;;14.58;84.25
8101;BME280;4093;53.470;9.832;2023-05-25T04:07:29;102457.69;;;14.45;84.96
8101;BME280;4093;53.470;9.832;2023-05-25T04:09:57;102457.72;;;14.35;85.10
8101;BME280;4093;53.470;9.832;2023-05-25T04:12:26;102453.34;;;14.45;84.39
8101;BME280;4093;53.470;9.832;2023-05-25T04:14:53;102455.91;;;14.47;84.04
8101;BME280;4093;53.470;9.832;2023-05-25T04:17:21;102450.88;;;14.13;85.43
8101;BME280;4093;53.470;9.832;2023-05-25T04:19:50;102459.63;;;14.00;86.40
8101;BME280;4093;53.470;9.832;2023-05-25T04:22:18;102460.63;;;13.51;87.88
8101;BME280;4093;53.470;9.832;2023-05-25T04:24:47;102470.00;;;14.04;86.79
8101;BME280;4093;53.470;9.832;2023-05-25T04:27:15;102463.13;;;13.85;87.10
8101;BME280;4093;53.470;9.832;2023-05-25T04:29:43;102471.88;;;13.61;88.24
8101;BME280;4093;53.470;9.832;2023-05-25T04:32:11;102469.97;;;14.15;86.50
8101;BME280;4093;53.470;9.832;2023-05-25T04:34:43;102479.56;;;13.96;87.56
8101;BME280;4093;53.470;9.832;2023-05-25T04:37:12;102480.44;;;13.98;87.98
8101;BME280;4093;53.470;9.832;2023-05-25T04:39:39;102477.78;;;14.09;87.16
8101;BME280;4093;53.470;9.832;2023-05-25T04:42:08;102482.03;;;14.25;86.16
8101;BME280;4093;53.470;9.832;2023-05-25T04:44:38;102482.25;;;13.59;87.70
8101;BME280;4093;53.470;9.832;2023-05-25T04:47:06;102487.47;;;13.53;88.77
8101;BME280;4093;53.470;9.832;2023-05-25T04:49:34;102496.06;;;13.89;88.14
8101;BME280;4093;53.470;9.832;2023-05-25T04:52:02;102497.63;;;14.36;86.08
8101;BME280;4093;53.470;9.832;2023-05-25T04:54:30;102489.13;;;13.86;86.59
8101;BME280;4093;53.470;9.832;2023-05-25T04:56:58;102495.09;;;14.21;86.57
8101;BME280;4093;53.470;9.832;2023-05-25T04:59:28;102505.44;;;14.31;85.28
8101;BME280;4093;53.470;9.832;2023-05-25T05:01:56;102497.56;;;14.54;84.58
8101;BME280;4093;53.470;9.832;2023-05-25T05:04:23;102488.75;;;14.72;83.51
8101;BME280;4093;53.470;9.832;2023-05-25T05:06:51;102492.09;;;14.93;82.52
8101;BME280;4093;53.470;9.832;2023-05-25T05:09:23;102476.78;;;14.38;82.88
8101;BME280;4093;53.470;9.832;2023-05-25T05:11:51;102487.84;;;14.81;82.83
8101;BME280;4093;53.470;9.832;2023-05-25T05:14:18;102488.59;;;14.97;82.06
8101;BME280;4093;53.470;9.832;2023-05-25T05:16:47;102479.06;;;14.94;80.91
8101;BME280;4093;53.470;9.832;2023-05-25T05:19:15;102486.22;;;14.60;82.38
8101;BME280;4093;53.470;9.832;2023-05-25T05:21:43;102491.22;;;14.95;82.42
8101;BME280;4093;53.470;9.832;2023-05-25T05:24:11;102483.69;;;14.46;84.58
8101;BME280;4093;53.470;9.832;2023-05-25T05:26:38;102500.75;;;14.98;81.73
8101;BME280;4093;53.470;9.832;2023-05-25T05:29:24;102496.97;;;15.36;80.73
8101;BME280;4093;53.470;9.832;2023-05-25T05:31:54;102501.72;;;15.86;78.43
8101;BME280;4093;53.470;9.832;2023-05-25T05:34:22;102498.38;;;16.45;77.43
8101;BME280;4093;53.470;9.832;2023-05-25T05:36:49;102481.78;;;14.76;82.47
8101;BME280;4093;53.470;9.832;2023-05-25T05:39:24;102496.84;;;16.28;78.25
8101;BME280;4093;53.470;9.832;2023-05-25T05:41:52;102488.53;;;16.65;74.98
8101;BME280;4093;53.470;9.832;2023-05-25T05:44:20;102484.03;;;16.76;76.16
8101;BME280;4093;53.470;9.832;2023-05-25T05:46:55;102490.94;;;17.34;71.67
8101;BME280;4093;53.470;9.832;2023-05-25T05:49:26;102489.16;;;16.82;73.23
8101;BME280;4093;53.470;9.832;2023-05-25T05:51:54;102485.97;;;16.60;73.34
8101;BME280;4093;53.470;9.832;2023-05-25T05:54:22;102492.38;;;17.00;73.75
8101;BME280;4093;53.470;9.832;2023-05-25T05:56:50;102479.06;;;17.63;70.33
8101;BME280;4093;53.470;9.832;2023-05-25T05:59:20;102479.91;;;17.65;69.50
8101;BME280;4093;53.470;9.832;2023-05-25T06:01:48;102482.66;;;17.57;70.78
8101;BME280;4093;53.470;9.832;2023-05-25T06:04:17;102467.50;;;17.28;70.07
8101;BME280;4093;53.470;9.832;2023-05-25T06:06:45;102460.28;;;16.92;70.92
8101;BME280;4093;53.470;9.832;2023-05-25T06:09:13;102475.22;;;16.83;72.43
8101;BME280;4093;53.470;9.832;2023-05-25T06:11:40;102488.09;;;16.96;72.52
8101;BME280;4093;53.470;9.832;2023-05-25T06:14:08;102483.00;;;16.23;74.62
8101;BME280;4093;53.470;9.832;2023-05-25T06:16:36;102486.44;;;18.71;68.24
8101;BME280;4093;53.470;9.832;2023-05-25T06:19:04;102480.13;;;21.25;60.71
8101;BME280;4093;53.470;9.832;2023-05-25T06:21:33;102467.59;;;22.73;56.41
8101;BME280;4093;53.470;9.832;2023-05-25T06:24:02;102463.91;;;22.77;53.91
8101;BME280;4093;53.470;9.832;2023-05-25T06:26:30;102453.19;;;21.90;55.92
8101;BME280;4093;53.470;9.832;2023-05-25T06:28:58;102454.84;;;24.05;52.27
8101;BME280;4093;53.470;9.832;2023-05-25T06:31:25;102459.59;;;23.78;51.50
8101;BME280;4093;53.470;9.832;2023-05-25T06:33:54;102448.53;;;23.70;51.32
8101;BME280;4093;53.470;9.832;2023-05-25T06:36:21;102455.47;;;23.52;53.51
8101;BME280;4093;53.470;9.832;2023-05-25T06:38:51;102445.97;;;24.06;49.59
8101;BME280;4093;53.470;9.832;2023-05-25T06:41:18;102452.44;;;25.93;46.36
8101;BME280;4093;53.470;9.832;2023-05-25T06:43:46;102443.41;;;23.26;48.47
8101;BME280;4093;53.470;9.832;2023-05-25T06:46:14;102462.53;;;24.29;48.43
8101;BME280;4093;53.470;9.832;2023-05-25T06:48:44;102462.47;;;26.82;44.26
8101;BME280;4093;53.470;9.832;2023-05-25T06:51:12;102447.16;;;24.37;46.38
8101;BME280;4093;53.470;9.832;2023-05-25T06:53:39;102452.50;;;25.08;46.38
8101;BME280;4093;53.470;9.832;2023-05-25T06:56:08;102462.84;;;23.44;48.86
8101;BME280;4093;53.470;9.832;2023-05-25T06:58:36;102466.69;;;22.74;51.59
8101;BME280;4093;53.470;9.832;2023-05-25T07:01:04;102466.72;;;24.88;47.98
8101;BME280;4093;53.470;9.832;2023-05-25T07:03:32;102460.84;;;25.51;45.80
8101;BME280;4093;53.470;9.832;2023-05-25T07:06:00;102467.72;;;24.68;46.85
8101;BME280;4093;53.470;9.832;2023-05-25T07:08:28;102467.81;;;23.31;49.31
8101;BME280;4093;53.470;9.832;2023-05-25T07:10:55;102474.75;;;25.89;44.31
8101;BME280;4093;53.470;9.832;2023-05-25T07:13:24;102473.94;;;26.82;43.52
8101;BME280;4093;53.470;9.832;2023-05-25T07:15:52;102473.13;;;26.02;44.71
8101;BME280;4093;53.470;9.832;2023-05-25T07:18:20;102473.47;;;25.30;45.41
8101;BME280;4093;53.470;9.832;2023-05-25T07:20:47;102473.75;;;26.39;43.96
8101;BME280;4093;53.470;9.832;2023-05-25T07:23:16;102469.63;;;25.69;43.73
8101;BME280;4093;53.470;9.832;2023-05-25T07:25:44;102483.34;;;22.74;49.44
8101;BME280;4093;53.470;9.832;2023-05-25T07:28:12;102502.66;;;22.07;51.70
8101;BME280;4093;53.470;9.832;2023-05-25T07:30:41;102505.84;;;23.47;48.61
8101;BME280;4093;53.470;9.832;2023-05-25T07:33:09;102499.59;;;21.94;51.76
8101;BME280;4093;53.470;9.832;2023-05-25T07:35:37;102493.84;;;25.10;45.97
8101;BME280;4093;53.470;9.832;2023-05-25T07:38:04;102496.66;;;25.75;44.39
8101;BME280;4093;53.470;9.832;2023-05-25T07:40:32;102494.66;;;27.52;42.17
8101;BME280;4093;53.470;9.832;2023-05-25T07:43:00;102481.44;;;26.28;43.03
8101;BME280;4093;53.470;9.832;2023-05-25T07:45:28;102494.38;;;25.52;44.51
8101;BME280;4093;53.470;9.832;2023-05-25T07:47:57;102503.31;;;23.65;46.34
8101;BME280;4093;53.470;9.832;2023-05-25T07:50:25;102503.44;;;25.98;43.41
8101;BME280;4093;53.470;9.832;2023-05-25T07:52:57;102511.44;;;25.46;44.71
8101;BME280;4093;53.470;9.832;2023-05-25T07:55:26;102506.00;;;26.47;41.59
8101;BME280;4093;53.470;9.832;2023-05-25T07:57:54;102519.13;;;24.24;45.21
8101;BME280;4093;53.470;9.832;2023-05-25T08:00:23;102533.22;;;23.65;48.13
8101;BME280;4093;53.470;9.832;2023-05-25T08:02:51;102539.00;;;24.33;47.04
8101;BME280;4093;53.470;9.832;2023-05-25T08:05:20;102536.66;;;25.88;43.77
8101;BME280;4093;53.470;9.832;2023-05-25T08:07:48;102533.09;;;27.16;42.20
8101;BME280;4093;53.470;9.832;2023-05-25T08:10:16;102523.13;;;26.89;41.37
8101;BME280;4093;53.470;9.832;2023-05-25T08:12:44;102526.03;;;24.84;44.17
8101;BME280;4093;53.470;9.832;2023-05-25T08:15:16;102541.34;;;22.76;48.49
8101;BME280;4093;53.470;9.832;2023-05-25T08:17:44;102544.59;;;24.65;46.30
8101;BME280;4093;53.470;9.832;2023-05-25T08:20:15;102537.53;;;25.71;43.37
8101;BME280;4093;53.470;9.832;2023-05-25T08:22:45;102535.13;;;24.21;46.22
8101;BME280;4093;53.470;9.832;2023-05-25T08:25:13;102551.97;;;20.72;52.97
8101;BME280;4093;53.470;9.832;2023-05-25T08:27:42;102570.47;;;22.51;50.97
8101;BME280;4093;53.470;9.832;2023-05-25T08:30:11;102559.44;;;22.63;48.82
8101;BME280;4093;53.470;9.832;2023-05-25T08:32:38;102540.84;;;22.66;47.75
8101;BME280;4093;53.470;9.832;2023-05-25T08:35:07;102568.38;;;23.88;47.68
8101;BME280;4093;53.470;9.832;2023-05-25T08:37:36;102553.16;;;25.43;43.33
8101;BME280;4093;53.470;9.832;2023-05-25T08:40:13;102559.69;;;26.03;43.52
8101;BME280;4093;53.470;9.832;2023-05-25T08:42:42;102529.72;;;23.65;45.31
8101;BME280;4093;53.470;9.832;2023-05-25T08:45:10;102568.66;;;22.28;49.45
8101;BME280;4093;53.470;9.832;2023-05-25T08:48:00;102578.25;;;21.29;51.37
8101;BME280;4093;53.470;9.832;2023-05-25T08:50:30;102571.03;;;22.35;48.88
8101;BME280;4093;53.470;9.832;2023-05-25T08:53:01;102572.97;;;22.30;49.90
8101;BME280;4093;53.470;9.832;2023-05-25T08:55:32;102570.66;;;20.32;52.60
8101;BME280;4093;53.470;9.832;2023-05-25T08:58:09;102575.94;;;20.30;54.34
8101;BME280;4093;53.470;9.832;2023-05-25T09:00:41;102558.97;;;20.42;51.22
8101;BME280;4093;53.470;9.832;2023-05-25T09:03:15;102588.13;;;20.64;53.98
8101;BME280;4093;53.470;9.832;2023-05-25T09:05:43;102601.44;;;21.70;51.11
8101;BME280;4093;53.470;9.832;2023-05-25T09:08:12;102618.31;;;21.38;53.63
8101;BME280;4093;53.470;9.832;2023-05-25T09:10:42;102609.06;;;20.05;54.08
8101;BME280;4093;53.470;9.832;2023-05-25T09:13:10;102616.75;;;20.75;53.75
8101;BME280;4093;53.470;9.832;2023-05-25T09:15:48;102618.66;;;20.70;51.33
8101;BME280;4093;53.470;9.832;2023-05-25T09:18:17;102610.81;;;20.37;52.62
8101;BME280;4093;53.470;9.832;2023-05-25T09:20:45;102629.56;;;21.95;50.46
8101;BME280;4093;53.470;9.832;2023-05-25T09:23:14;102613.16;;;20.77;50.33
8101;BME280;4093;53.470;9.832;2023-05-25T09:25:45;102621.28;;;20.70;51.17
8101;BME280;4093;53.470;9.832;2023-05-25T09:28:13;102615.69;;;21.09;52.09
8101;BME280;4093;53.470;9.832;2023-05-25T09:30:44;102619.31;;;21.33;51.16
8101;BME280;4093;53.470;9.832;2023-05-25T09:33:14;102600.41;;;20.93;50.64
8101;BME280;4093;53.470;9.832;2023-05-25T09:35:44;102605.72;;;20.31;52.55
8101;BME280;4093;53.470;9.832;2023-05-25T09:38:12;102633.50;;;21.57;52.78
8101;BME280;4093;53.470;9.832;2023-05-25T09:40:43;102611.16;;;21.93;51.82
8101;BME280;4093;53.470;9.832;2023-05-25T09:43:12;102601.56;;;20.55;53.66
8101;BME280;4093;53.470;9.832;2023-05-25T09:45:54;102636.53;;;19.93;56.05
8101;BME280;4093;53.470;9.832;2023-05-25T09:48:22;102638.66;;;20.75;52.62
8101;BME280;4093;53.470;9.832;2023-05-25T09:50:50;102620.50;;;20.35;53.91
8101;BME280;4093;53.470;9.832;2023-05-25T09:53:19;102565.63;;;19.59;56.41
8101;BME280;4093;53.470;9.832;2023-05-25T09:55:50;102641.13;;;20.80;55.98
8101;BME280;4093;53.470;9.832;2023-05-25T09:58:21;102602.63;;;20.46;54.75
8101;BME280;4093;53.470;9.832;2023-05-25T10:00:52;102629.72;;;20.19;55.10
8101;BME280;4093;53.470;9.832;2023-05-25T10:03:21;102640.38;;;21.05;54.17
8101;BME280;4093;53.470;9.832;2023-05-25T10:05:51;102627.03;;;19.52;57.49
8101;BME280;4093;53.470;9.832;2023-05-25T10:08:20;102646.47;;;19.80;58.62
8101;BME280;4093;53.470;9.832;2023-05-25T10:10:55;102640.69;;;21.23;54.89
8101;BME280;4093;53.470;9.832;2023-05-25T10:13:26;102643.00;;;21.06;54.10
8101;BME280;4093;53.470;9.832;2023-05-25T10:15:57;102626.75;;;21.48;52.17
8101;BME280;4093;53.470;9.832;2023-05-25T10:18:31;102633.28;;;20.47;55.75
8101;BME280;4093;53.470;9.832;2023-05-25T10:21:03;102622.72;;;20.18;55.16
8101;BME280;4093;53.470;9.832;2023-05-25T10:23:37;102644.13;;;20.68;56.62
8101;BME280;4093;53.470;9.832;2023-05-25T10:26:09;102630.16;;;20.34;56.84
8101;BME280;4093;53.470;9.832;2023-05-25T10:28:43;102643.09;;;20.09;57.92
8101;BME280;4093;53.470;9.832;2023-05-25T10:31:13;102648.16;;;19.46;57.81
8101;BME280;4093;53.470;9.832;2023-05-25T10:33:43;102656.75;;;20.22;57.03
8101;BME280;4093;53.470;9.832;2023-05-25T10:36:19;102662.78;;;20.59;54.36
8101;BME280;4093;53.470;9.832;2023-05-25T10:38:51;102657.84;;;21.07;53.82
8101;BME280;4093;53.470;9.832;2023-05-25T10:41:20;102646.13;;;20.27;55.86
8101;BME280;4093;53.470;9.832;2023-05-25T10:43:48;102641.19;;;19.82;57.61
8101;BME280;4093;53.470;9.832;2023-05-25T10:46:19;102669.22;;;20.47;56.78
8101;BME280;4093;53.470;9.832;2023-05-25T10:48:49;102636.44;;;20.90;53.84
8101;BME280;4093;53.470;9.832;2023-05-25T10:51:18;102663.13;;;21.63;53.23
8101;BME280;4093;53.470;9.832;2023-05-25T10:53:47;102655.19;;;20.46;55.65
8101;BME280;4093;53.470;9.832;2023-05-25T10:56:26;102658.53;;;21.14;54.12
8101;BME280;4093;53.470;9.832;2023-05-25T10:58:54;102653.00;;;21.21;52.62
8101;BME280;4093;53.470;9.832;2023-05-25T11:01:24;102652.16;;;21.21;52.86
8101;BME280;4093;53.470;9.832;2023-05-25T11:03:56;102638.66;;;20.11;52.32
8101;BME280;4093;53.470;9.832;2023-05-25T11:09:39;102635.50;;;21.20;52.78
8101;BME280;4093;53.470;9.832;2023-05-25T11:12:19;102641.81;;;21.15;53.51
8101;BME280;4093;53.470;9.832;2023-05-25T11:15:08;102630.97;;;22.30;52.43
8101;BME280;4093;53.470;9.832;2023-05-25T11:17:44;102629.50;;;21.45;53.42
8101;BME280;4093;53.470;9.832;2023-05-25T11:20:25;102622.78;;;22.13;52.68
8101;BME280;4093;53.470;9.832;2023-05-25T11:22:53;102620.44;;;20.97;53.49
8101;BME280;4093;53.470;9.832;2023-05-25T11:25:37;102631.75;;;21.27;53.96
8101;BME280;4093;53.470;9.832;2023-05-25T11:28:07;102632.59;;;21.30;53.90
8101;BME280;4093;53.470;9.832;2023-05-25T11:30:38;102631.00;;;20.96;53.83
8101;BME280;4093;53.470;9.832;2023-05-25T11:33:07;102620.09;;;20.80;54.43
8101;BME280;4093;53.470;9.832;2023-05-25T11:35:35;102611.09;;;20.59;53.88
8101;BME280;4093;53.470;9.832;2023-05-25T11:38:06;102610.94;;;20.64;54.28
8101;BME280;4093;53.470;9.832;2023-05-25T11:40:34;102630.84;;;20.72;53.64
8101;BME280;4093;53.470;9.832;2023-05-25T11:43:07;102624.00;;;20.67;53.13
8101;BME280;4093;53.470;9.832;2023-05-25T11:45:36;102615.66;;;20.51;51.47
8101;BME280;4093;53.470;9.832;2023-05-25T11:48:05;102612.84;;;20.59;52.03
8101;BME280;4093;53.470;9.832;2023-05-25T11:50:32;102627.75;;;19.94;54.71
8101;BME280;4093;53.470;9.832;2023-05-25T11:53:03;102638.13;;;20.92;54.90
8101;BME280;4093;53.470;9.832;2023-05-25T11:55:31;102633.50;;;21.57;52.86
8101;BME280;4093;53.470;9.832;2023-05-25T11:57:59;102621.13;;;21.31;52.73
8101;BME280;4093;53.470;9.832;2023-05-25T12:00:28;102637.47;;;20.56;54.44
8101;BME280;4093;53.470;9.832;2023-05-25T12:02:56;102635.97;;;20.77;53.71
8101;BME280;4093;53.470;9.832;2023-05-25T12:05:24;102622.09;;;20.41;51.71
8101;BME280;4093;53.470;9.832;2023-05-25T12:07:52;102622.56;;;20.56;52.52
8101;BME280;4093;53.470;9.832;2023-05-25T12:10:20;102626.16;;;20.52;54.29
8101;BME280;4093;53.470;9.832;2023-05-25T12:12:49;102613.44;;;20.68;53.27
8101;BME280;4093;53.470;9.832;2023-05-25T12:15:20;102617.25;;;21.16;52.44
8101;BME280;4093;53.470;9.832;2023-05-25T12:17:51;102621.06;;;21.06;51.72
8101;BME280;4093;53.470;9.832;2023-05-25T12:20:20;102618.59;;;21.27;51.98
8101;BME280;4093;53.470;9.832;2023-05-25T12:22:47;102627.13;;;21.37;53.72
8101;BME280;4093;53.470;9.832;2023-05-25T12:25:18;102607.38;;;20.94;52.89
8101;BME280;4093;53.470;9.832;2023-05-25T12:27:46;102613.25;;;20.74;52.23
8101;BME280;4093;53.470;9.832;2023-05-25T12:30:14;102618.22;;;20.23;55.38
8101;BME280;4093;53.470;9.832;2023-05-25T12:33:00;102621.94;;;20.45;53.98
8101;BME280;4093;53.470;9.832;2023-05-25T12:35:43;102627.28;;;21.31;53.17
8101;BME280;4093;53.470;9.832;2023-05-25T12:38:12;102619.88;;;20.88;52.94
8101;BME280;4093;53.470;9.832;2023-05-25T12:40:41;102627.22;;;21.33;53.25
8101;BME280;4093;53.470;9.832;2023-05-25T12:43:10;102622.88;;;21.60;52.25
8101;BME280;4093;53.470;9.832;2023-05-25T12:45:40;102624.94;;;22.02;52.56
8101;BME280;4093;53.470;9.832;2023-05-25T12:48:09;102605.03;;;21.13;52.05
8101;BME280;4093;53.470;9.832;2023-05-25T12:50:55;102611.16;;;21.14;53.46
8101;BME280;4093;53.470;9.832;2023-05-25T12:53:24;102609.94;;;21.24;52.54
8101;BME280;4093;53.470;9.832;2023-05-25T12:56:00;102602.97;;;21.23;51.78
8101;BME280;4093;53.470;9.832;2023-05-25T12:58:31;102600.34;;;21.23;51.82
8101;BME280;4093;53.470;9.832;2023-05-25T13:01:09;102606.78;;;21.67;51.82
8101;BME280;4093;53.470;9.832;2023-05-25T13:03:38;102604.03;;;20.89;52.53
8101;BME280;4093;53.470;9.832;2023-05-25T13:06:07;102601.38;;;21.19;52.18
8101;BME280;4093;53.470;9.832;2023-05-25T13:08:34;102609.16;;;21.22;53.08
8101;BME280;4093;53.470;9.832;2023-05-25T13:11:02;102592.38;;;21.53;52.36
8101;BME280;4093;53.470;9.832;2023-05-25T13:13:30;102581.19;;;21.18;50.90
8101;BME280;4093;53.470;9.832;2023-05-25T13:15:58;102601.59;;;21.91;50.30
8101;BME280;4093;53.470;9.832;2023-05-25T13:18:26;102589.63;;;22.06;50.63
8101;BME280;4093;53.470;9.832;2023-05-25T13:20:55;102592.19;;;22.79;50.33
8101;BME280;4093;53.470;9.832;2023-05-25T13:23:24;102587.97;;;22.75;49.72
8101;BME280;4093;53.470;9.832;2023-05-25T13:25:51;102585.38;;;22.28;49.87